sensor_id;sensor_type;location;lat;lon;timestamp;P1;durP1;ratioP1;P2;durP2;ratioP2
72645;SDS011;60687;53.876;10.674;2024-01-06T00:07:20;10.67;;;5.43;;
72645;SDS011;60687;53.876;10.674;2024-01-06T00:17:25;10.50;;;5.60;;
72645;SDS011;60687;53.876;10.674;2024-01-06T00:27:27;10.48;;;5.78;;
72645;SDS011;60687;53.876;10.674;2024-01-06T00:37:32;11.03;;;5.97;;
72645;SDS011;60687;53.876;10.674;2024-01-06T00:47:34;12.20;;;6.17;;
72645;SDS011;60687;53.876;10.674;2024-01-06T00:57:38;10.45;;;6.03;;
72645;SDS011;60687;53.876;10.674;2024-01-06T01:07:41;12.40;;;6.10;;
72645;SDS011;60687;53.876;10.674;2024-01-06T01:17:45;10.60;;;5.70;;
72645;SDS011;60687;53.876;10.674;2024-01-06T01:27:48;12.73;;;6.57;;
72645;SDS011;60687;53.876;10.674;2024-01-06T01:37:54;11.65;;;6.47;;
72645;SDS011;60687;53.876;10.674;2024-01-06T01:47:56;12.87;;;6.70;;
72645;SDS011;60687;53.876;10.674;2024-01-06T01:58:02;10.87;;;6.33;;
72645;SDS011;60687;53.876;10.674;2024-01-06T02:08:05;12.85;;;6.57;;
72645;SDS011;60687;53.876;10.674;2024-01-06T02:18:10;12.50;;;7.15;;
72645;SDS011;60687;53.876;10.674;2024-01-06T02:28:14;11.43;;;6.30;;
72645;SDS011;60687;53.876;10.674;2024-01-06T02:38:17;12.68;;;5.75;;
72645;SDS011;60687;53.876;10.674;2024-01-06T02:48:21;11.77;;;6.07;;
72645;SDS011;60687;53.876;10.674;2024-01-06T02:58:24;12.03;;;6.57;;
72645;SDS011;60687;53.876;10.674;2024-01-06T03:08:27;13.50;;;7.07;;
72645;SDS011;60687;53.876;10.674;2024-01-06T03:18:30;13.35;;;6.57;;
72645;SDS011;60687;53.876;10.674;2024-01-06T03:28:34;15.00;;;7.23;;
72645;SDS011;60687;53.876;10.674;2024-01-06T03:38:36;11.90;;;6.43;;
72645;SDS011;60687;53.876;10.674;2024-01-06T03:48:41;14.68;;;7.60;;
72645;SDS011;60687;53.876;10.674;2024-01-06T03:58:44;14.90;;;7.83;;
72645;SDS011;60687;53.876;10.674;2024-01-06T04:08:48;13.40;;;7.20;;
72645;SDS011;60687;53.876;10.674;2024-01-06T04:18:50;12.32;;;6.90;;
72645;SDS011;60687;53.876;10.674;2024-01-06T04:28:55;12.75;;;6.82;;
72645;SDS011;60687;53.876;10.674;2024-01-06T04:38:57;14.87;;;7.17;;
72645;SDS011;60687;53.876;10.674;2024-01-06T04:49:03;14.23;;;7.87;;
72645;SDS011;60687;53.876;10.674;2024-01-06T04:59:06;14.30;;;7.28;;
72645;SDS011;60687;53.876;10.674;2024-01-06T05:09:10;14.23;;;7.77;;
72645;SDS011;60687;53.876;10.674;2024-01-06T05:19:12;11.43;;;6.40;;
72645;SDS011;60687;53.876;10.674;2024-01-06T05:29:21;12.90;;;6.95;;
72645;SDS011;60687;53.876;10.674;2024-01-06T05:39:25;15.93;;;7.83;;
72645;SDS011;60687;53.876;10.674;2024-01-06T05:49:28;15.80;;;7.63;;
72645;SDS011;60687;53.876;10.674;2024-01-06T05:59:32;13.00;;;7.10;;
72645;SDS011;60687;53.876;10.674;2024-01-06T06:09:36;15.65;;;7.55;;
72645;SDS011;60687;53.876;10.674;2024-01-06T06:19:41;13.10;;;6.80;;
72645;SDS011;60687;53.876;10.674;2024-01-06T06:29:44;12.97;;;6.60;;
72645;SDS011;60687;53.876;10.674;2024-01-06T06:39:47;12.57;;;6.35;;
72645;SDS011;60687;53.876;10.674;2024-01-06T06:49:51;13.47;;;5.93;;
72645;SDS011;60687;53.876;10.674;2024-01-06T06:59:53;12.77;;;6.53;;
72645;SDS011;60687;53.876;10.674;2024-01-06T07:09:57;12.20;;;5.95;;
72645;SDS011;60687;53.876;10.674;2024-01-06T07:19:59;11.93;;;5.93;;
72645;SDS011;60687;53.876;10.674;2024-01-06T07:30:04;18.70;;;6.90;;
72645;SDS011;60687;53.876;10.674;2024-01-06T07:40:09;16.02;;;6.93;;
72645;SDS011;60687;53.876;10.674;2024-01-06T07:50:16;14.70;;;7.40;;
72645;SDS011;60687;53.876;10.674;2024-01-06T08:00:18;17.43;;;7.67;;
72645;SDS011;60687;53.876;10.674;2024-01-06T08:10:22;15.57;;;7.20;;
72645;SDS011;60687;53.876;10.674;2024-01-06T08:20:25;15.18;;;7.57;;
72645;SDS011;60687;53.876;10.674;2024-01-06T08:30:30;13.03;;;6.67;;
72645;SDS011;60687;53.876;10.674;2024-01-06T08:40:33;14.77;;;7.23;;
72645;SDS011;60687;53.876;10.674;2024-01-06T08:50:37;13.13;;;6.88;;
72645;SDS011;60687;53.876;10.674;2024-01-06T09:00:40;11.73;;;5.67;;
72645;SDS011;60687;53.876;10.674;2024-01-06T09:10:47;14.80;;;6.63;;
72645;SDS011;60687;53.876;10.674;2024-01-06T09:20:52;14.88;;;6.63;;
72645;SDS011;60687;53.876;10.674;2024-01-06T09:30:56;12.43;;;6.00;;
72645;SDS011;60687;53.876;10.674;2024-01-06T09:40:59;12.57;;;5.43;;
72645;SDS011;60687;53.876;10.674;2024-01-06T09:51:03;9.77;;;4.50;;
72645;SDS011;60687;53.876;10.674;2024-01-06T10:01:07;9.18;;;4.45;;
72645;SDS011;60687;53.876;10.674;2024-01-06T10:11:12;9.03;;;4.57;;
72645;SDS011;60687;53.876;10.674;2024-01-06T10:21:15;8.60;;;3.93;;
72645;SDS011;60687;53.876;10.674;2024-01-06T10:31:19;8.98;;;3.78;;
72645;SDS011;60687;53.876;10.674;2024-01-06T10:41:21;8.30;;;3.73;;
72645;SDS011;60687;53.876;10.674;2024-01-06T10:51:28;8.70;;;3.93;;
72645;SDS011;60687;53.876;10.674;2024-01-06T11:01:31;10.85;;;4.00;;
72645;SDS011;60687;53.876;10.674;2024-01-06T11:11:37;8.27;;;4.03;;
72645;SDS011;60687;53.876;10.674;2024-01-06T11:21:41;9.53;;;3.57;;
72645;SDS011;60687;53.876;10.674;2024-01-06T11:42:21;8.45;;;3.58;;
72645;SDS011;60687;53.876;10.674;2024-01-06T11:52:34;10.17;;;4.47;;
72645;SDS011;60687;53.876;10.674;2024-01-06T12:02:37;8.67;;;3.70;;
72645;SDS011;60687;53.876;10.674;2024-01-06T12:12:41;7.65;;;3.70;;
72645;SDS011;60687;53.876;10.674;2024-01-06T12:22:44;8.63;;;3.23;;
72645;SDS011;60687;53.876;10.674;2024-01-06T12:32:48;10.27;;;4.43;;
72645;SDS011;60687;53.876;10.674;2024-01-06T12:42:52;7.68;;;3.90;;
72645;SDS011;60687;53.876;10.674;2024-01-06T12:52:56;11.93;;;4.40;;
72645;SDS011;60687;53.876;10.674;2024-01-06T13:02:59;8.10;;;3.90;;
72645;SDS011;60687;53.876;10.674;2024-01-06T13:13:03;11.00;;;4.47;;
72645;SDS011;60687;53.876;10.674;2024-01-06T13:23:07;9.57;;;4.70;;
72645;SDS011;60687;53.876;10.674;2024-01-06T13:33:10;13.53;;;5.93;;
72645;SDS011;60687;53.876;10.674;2024-01-06T13:43:13;10.53;;;5.43;;
72645;SDS011;60687;53.876;10.674;2024-01-06T13:53:17;12.40;;;5.47;;
72645;SDS011;60687;53.876;10.674;2024-01-06T14:03:20;9.30;;;4.80;;
72645;SDS011;60687;53.876;10.674;2024-01-06T14:13:24;14.67;;;6.20;;
72645;SDS011;60687;53.876;10.674;2024-01-06T14:23:26;10.18;;;4.78;;
72645;SDS011;60687;53.876;10.674;2024-01-06T14:33:32;9.60;;;5.30;;
72645;SDS011;60687;53.876;10.674;2024-01-06T14:43:35;9.80;;;4.73;;
72645;SDS011;60687;53.876;10.674;2024-01-06T14:53:40;8.53;;;4.60;;
72645;SDS011;60687;53.876;10.674;2024-01-06T15:03:44;10.05;;;4.50;;
72645;SDS011;60687;53.876;10.674;2024-01-06T15:13:48;9.43;;;3.90;;
72645;SDS011;60687;53.876;10.674;2024-01-06T15:23:54;11.60;;;4.23;;
72645;SDS011;60687;53.876;10.674;2024-01-06T15:33:58;8.25;;;4.50;;
72645;SDS011;60687;53.876;10.674;2024-01-06T15:44:01;9.30;;;3.80;;
72645;SDS011;60687;53.876;10.674;2024-01-06T15:54:07;11.37;;;4.90;;
72645;SDS011;60687;53.876;10.674;2024-01-06T16:04:11;7.88;;;4.03;;
72645;SDS011;60687;53.876;10.674;2024-01-06T16:14:14;9.48;;;4.07;;
72645;SDS011;60687;53.876;10.674;2024-01-06T16:24:17;8.80;;;3.80;;
72645;SDS011;60687;53.876;10.674;2024-01-06T16:34:21;7.33;;;3.63;;
72645;SDS011;60687;53.876;10.674;2024-01-06T16:44:23;8.30;;;3.90;;
72645;SDS011;60687;53.876;10.674;2024-01-06T16:54:27;7.00;;;3.20;;
72645;SDS011;60687;53.876;10.674;2024-01-06T17:04:31;9.07;;;3.27;;
72645;SDS011;60687;53.876;10.674;2024-01-06T17:14:36;6.90;;;3.05;;
72645;SDS011;60687;53.876;10.674;2024-01-06T17:24:39;7.60;;;3.10;;
72645;SDS011;60687;53.876;10.674;2024-01-06T17:34:43;8.03;;;3.00;;
72645;SDS011;60687;53.876;10.674;2024-01-06T17:44:46;9.05;;;4.00;;
72645;SDS011;60687;53.876;10.674;2024-01-06T17:54:50;7.70;;;3.30;;
72645;SDS011;60687;53.876;10.674;2024-01-06T18:04:52;6.87;;;3.17;;
72645;SDS011;60687;53.876;10.674;2024-01-06T18:14:56;7.43;;;2.72;;
72645;SDS011;60687;53.876;10.674;2024-01-06T18:25:00;6.95;;;3.00;;
72645;SDS011;60687;53.876;10.674;2024-01-06T18:35:05;5.87;;;2.57;;
72645;SDS011;60687;53.876;10.674;2024-01-06T18:45:10;6.87;;;2.70;;
72645;SDS011;60687;53.876;10.674;2024-01-06T18:55:15;6.68;;;2.92;;
72645;SDS011;60687;53.876;10.674;2024-01-06T19:05:18;6.27;;;2.70;;
72645;SDS011;60687;53.876;10.674;2024-01-06T19:15:22;8.87;;;3.37;;
72645;SDS011;60687;53.876;10.674;2024-01-06T19:25:25;7.30;;;3.40;;
72645;SDS011;60687;53.876;10.674;2024-01-06T19:35:29;7.23;;;3.07;;
72645;SDS011;60687;53.876;10.674;2024-01-06T19:45:32;7.07;;;3.10;;
72645;SDS011;60687;53.876;10.674;2024-01-06T19:55:36;9.07;;;2.97;;
72645;SDS011;60687;53.876;10.674;2024-01-06T20:05:38;9.70;;;3.40;;
72645;SDS011;60687;53.876;10.674;2024-01-06T20:15:43;8.17;;;3.17;;
72645;SDS011;60687;53.876;10.674;2024-01-06T20:25:46;6.53;;;2.80;;
72645;SDS011;60687;53.876;10.674;2024-01-06T20:35:51;6.57;;;2.63;;
72645;SDS011;60687;53.876;10.674;2024-01-06T20:45:53;5.87;;;2.53;;
72645;SDS011;60687;53.876;10.674;2024-01-06T20:55:57;6.70;;;2.83;;
72645;SDS011;60687;53.876;10.674;2024-01-06T21:06:02;6.43;;;2.90;;
72645;SDS011;60687;53.876;10.674;2024-01-06T21:16:07;7.30;;;2.47;;
72645;SDS011;60687;53.876;10.674;2024-01-06T21:26:13;6.40;;;2.90;;
72645;SDS011;60687;53.876;10.674;2024-01-06T21:36:18;6.57;;;2.70;;
72645;SDS011;60687;53.876;10.674;2024-01-06T21:46:23;6.53;;;3.00;;
72645;SDS011;60687;53.876;10.674;2024-01-06T21:56:27;6.70;;;2.83;;
72645;SDS011;60687;53.876;10.674;2024-01-06T22:06:31;7.63;;;2.60;;
72645;SDS011;60687;53.876;10.674;2024-01-06T22:16:36;6.45;;;2.70;;
72645;SDS011;60687;53.876;10.674;2024-01-06T22:26:39;7.30;;;2.67;;
72645;SDS011;60687;53.876;10.674;2024-01-06T22:36:43;7.93;;;2.90;;
72645;SDS011;60687;53.876;10.674;2024-01-06T22:46:48;7.40;;;3.10;;
72645;SDS011;60687;53.876;10.674;2024-01-06T22:56:54;6.47;;;2.70;;
72645;SDS011;60687;53.876;10.674;2024-01-06T23:06:57;5.97;;;2.57;;
72645;SDS011;60687;53.876;10.674;2024-01-06T23:17:02;7.40;;;2.70;;
72645;SDS011;60687;53.876;10.674;2024-01-06T23:27:05;6.68;;;2.80;;
72645;SDS011;60687;53.876;10.674;2024-01-06T23:37:12;8.10;;;2.90;;
72645;SDS011;60687;53.876;10.674;2024-01-06T23:47:15;6.73;;;2.50;;
72645;SDS011;60687;53.876;10.674;2024-01-06T23:57:19;5.70;;;2.50;;
